Terminal Aerodrome Forecast
Issued by NWS Raleigh/Durham, NC

Home | Current Version | Previous Version | Text Only | Print | Product List | Glossary On
Versions: 1 2 3 4 5 6 7 8 9 10 11 12 13 14 15 16 17 18 19 20
000
FTUS42 KRAH 261726
TAFGSO
TAF
KGSO 261726Z 2618/2718 19010G19KT P6SM BKN040
      TEMPO 2619/2621 6SM -SHRA SCT025 BKN035
     FM270000 17005KT P6SM BKN050
      TEMPO 2712/2714 BKN018
     FM271400 21006KT P6SM BKN025=

USA.gov is the U.S. government's official web portal to all federal, state and local government web resources and services.